sensor_id;sensor_type;location;lat;lon;timestamp;pressure;altitude;pressure_sealevel;temperature;humidity
16331;BME280;8275;48.206;16.340;2023-01-27T00:01:16;99362.19;;;7.39;46.73
16331;BME280;8275;48.206;16.340;2023-01-27T00:03:45;99364.34;;;7.37;47.02
16331;BME280;8275;48.206;16.340;2023-01-27T00:06:13;99356.66;;;7.34;46.93
16331;BME280;8275;48.206;16.340;2023-01-27T00:08:42;99357.69;;;7.33;47.15
16331;BME280;8275;48.206;16.340;2023-01-27T00:11:10;99353.28;;;7.32;46.87
16331;BME280;8275;48.206;16.340;2023-01-27T00:13:56;99357.09;;;7.31;46.96
16331;BME280;8275;48.206;16.340;2023-01-27T00:16:25;99356.50;;;7.29;46.77
16331;BME280;8275;48.206;16.340;2023-01-27T00:18:54;99352.09;;;7.28;46.67
16331;BME280;8275;48.206;16.340;2023-01-27T00:21:22;99350.47;;;7.27;46.90
16331;BME280;8275;48.206;16.340;2023-01-27T00:24:10;99358.06;;;7.25;46.29
16331;BME280;8275;48.206;16.340;2023-01-27T00:26:57;99364.78;;;7.23;46.50
16331;BME280;8275;48.206;16.340;2023-01-27T00:29:25;99366.44;;;7.24;46.48
16331;BME280;8275;48.206;16.340;2023-01-27T00:31:55;99360.97;;;7.24;46.75
16331;BME280;8275;48.206;16.340;2023-01-27T00:34:41;99355.78;;;7.22;46.57
16331;BME280;8275;48.206;16.340;2023-01-27T00:37:09;99359.34;;;7.23;46.27
16331;BME280;8275;48.206;16.340;2023-01-27T00:39:38;99358.50;;;7.22;46.53
16331;BME280;8275;48.206;16.340;2023-01-27T00:42:06;99357.66;;;7.22;46.53
16331;BME280;8275;48.206;16.340;2023-01-27T00:44:35;99360.63;;;7.20;45.97
16331;BME280;8275;48.206;16.340;2023-01-27T00:47:05;99362.53;;;7.20;46.58
16331;BME280;8275;48.206;16.340;2023-01-27T00:49:33;99358.38;;;7.17;46.21
16331;BME280;8275;48.206;16.340;2023-01-27T00:52:02;99358.59;;;7.16;46.17
16331;BME280;8275;48.206;16.340;2023-01-27T00:54:31;99364.50;;;7.13;46.47
16331;BME280;8275;48.206;16.340;2023-01-27T00:56:59;99363.91;;;7.11;46.05
16331;BME280;8275;48.206;16.340;2023-01-27T00:59:27;99377.53;;;7.11;46.29
16331;BME280;8275;48.206;16.340;2023-01-27T01:01:56;99380.59;;;7.14;46.77
16331;BME280;8275;48.206;16.340;2023-01-27T01:04:26;99372.44;;;7.14;46.21
16331;BME280;8275;48.206;16.340;2023-01-27T01:06:54;99376.59;;;7.17;46.22
16331;BME280;8275;48.206;16.340;2023-01-27T01:09:23;99378.28;;;7.18;46.05
16331;BME280;8275;48.206;16.340;2023-01-27T01:11:51;99375.75;;;7.16;46.60
16331;BME280;8275;48.206;16.340;2023-01-27T01:14:19;99376.84;;;7.15;46.34
16331;BME280;8275;48.206;16.340;2023-01-27T01:16:48;99374.13;;;7.15;46.41
16331;BME280;8275;48.206;16.340;2023-01-27T01:19:16;99372.22;;;7.16;46.33
16331;BME280;8275;48.206;16.340;2023-01-27T01:21:46;99363.56;;;7.19;46.56
16331;BME280;8275;48.206;16.340;2023-01-27T01:24:15;99371.53;;;7.20;46.99
16331;BME280;8275;48.206;16.340;2023-01-27T01:26:43;99358.25;;;7.24;46.49
16331;BME280;8275;48.206;16.340;2023-01-27T01:29:11;99361.56;;;7.26;46.52
16331;BME280;8275;48.206;16.340;2023-01-27T01:31:40;99367.63;;;7.28;46.54
16331;BME280;8275;48.206;16.340;2023-01-27T01:34:08;99363.84;;;7.29;46.13
16331;BME280;8275;48.206;16.340;2023-01-27T01:36:37;99357.56;;;7.28;46.38
16331;BME280;8275;48.206;16.340;2023-01-27T01:39:06;99357.56;;;7.28;45.98
16331;BME280;8275;48.206;16.340;2023-01-27T01:41:35;99358.63;;;7.27;46.42
16331;BME280;8275;48.206;16.340;2023-01-27T01:44:21;99362.66;;;7.25;45.86
16331;BME280;8275;48.206;16.340;2023-01-27T01:46:50;99358.25;;;7.24;46.03
16331;BME280;8275;48.206;16.340;2023-01-27T01:49:22;99353.06;;;7.22;45.85
16331;BME280;8275;48.206;16.340;2023-01-27T01:51:56;99354.69;;;7.23;46.17
16331;BME280;8275;48.206;16.340;2023-01-27T01:54:32;99350.91;;;7.24;46.22
16331;BME280;8275;48.206;16.340;2023-01-27T01:57:06;99365.13;;;7.26;45.78
16331;BME280;8275;48.206;16.340;2023-01-27T01:59:38;99356.97;;;7.26;45.64
16331;BME280;8275;48.206;16.340;2023-01-27T02:02:12;99355.91;;;7.27;45.84
16331;BME280;8275;48.206;16.340;2023-01-27T02:04:46;99349.19;;;7.30;46.00
16331;BME280;8275;48.206;16.340;2023-01-27T02:07:21;99350.56;;;7.32;46.12
16331;BME280;8275;48.206;16.340;2023-01-27T02:09:56;99337.56;;;7.34;46.25
16331;BME280;8275;48.206;16.340;2023-01-27T02:12:24;99345.25;;;7.37;46.27
16331;BME280;8275;48.206;16.340;2023-01-27T02:14:53;99343.97;;;7.40;46.37
16331;BME280;8275;48.206;16.340;2023-01-27T02:17:22;99345.41;;;7.42;46.13
16331;BME280;8275;48.206;16.340;2023-01-27T02:19:57;99342.66;;;7.42;46.14
16331;BME280;8275;48.206;16.340;2023-01-27T02:22:37;99326.78;;;7.39;46.20
16331;BME280;8275;48.206;16.340;2023-01-27T02:25:14;99333.31;;;7.38;46.14
16331;BME280;8275;48.206;16.340;2023-01-27T02:27:46;99327.03;;;7.38;45.78
16331;BME280;8275;48.206;16.340;2023-01-27T02:30:15;99329.16;;;7.36;45.82
16331;BME280;8275;48.206;16.340;2023-01-27T02:32:44;99332.72;;;7.36;45.87
16331;BME280;8275;48.206;16.340;2023-01-27T02:35:22;99331.88;;;7.36;45.78
16331;BME280;8275;48.206;16.340;2023-01-27T02:37:53;99320.53;;;7.39;45.83
16331;BME280;8275;48.206;16.340;2023-01-27T02:40:24;99319.44;;;7.40;46.00
16331;BME280;8275;48.206;16.340;2023-01-27T02:42:55;99316.25;;;7.43;46.00
16331;BME280;8275;48.206;16.340;2023-01-27T02:45:24;99317.91;;;7.44;45.82
16331;BME280;8275;48.206;16.340;2023-01-27T02:47:55;99313.28;;;7.44;45.79
16331;BME280;8275;48.206;16.340;2023-01-27T02:50:23;99312.09;;;7.40;45.40
16331;BME280;8275;48.206;16.340;2023-01-27T02:52:52;99305.22;;;7.38;45.68
16331;BME280;8275;48.206;16.340;2023-01-27T02:55:20;99309.47;;;7.34;45.52
16331;BME280;8275;48.206;16.340;2023-01-27T02:57:49;99312.91;;;7.29;45.15
16331;BME280;8275;48.206;16.340;2023-01-27T03:00:19;99319.06;;;7.25;45.33
16331;BME280;8275;48.206;16.340;2023-01-27T03:02:48;99308.63;;;7.22;45.37
16331;BME280;8275;48.206;16.340;2023-01-27T03:05:16;99315.63;;;7.18;45.41
16331;BME280;8275;48.206;16.340;2023-01-27T03:07:45;99310.63;;;7.15;45.28
16331;BME280;8275;48.206;16.340;2023-01-27T03:10:13;99303.75;;;7.12;45.25
16331;BME280;8275;48.206;16.340;2023-01-27T03:12:43;99306.72;;;7.11;45.80
16331;BME280;8275;48.206;16.340;2023-01-27T03:15:12;99304.22;;;7.09;45.62
16331;BME280;8275;48.206;16.340;2023-01-27T03:18:05;99319.34;;;7.05;45.55
16331;BME280;8275;48.206;16.340;2023-01-27T03:20:45;99310.59;;;7.03;46.00
16331;BME280;8275;48.206;16.340;2023-01-27T03:23:16;99306.44;;;7.00;45.68
16331;BME280;8275;48.206;16.340;2023-01-27T03:25:46;99303.34;;;6.97;45.66
16331;BME280;8275;48.206;16.340;2023-01-27T03:28:15;99303.94;;;6.99;46.02
16331;BME280;8275;48.206;16.340;2023-01-27T03:30:43;99303.13;;;6.98;46.08
16331;BME280;8275;48.206;16.340;2023-01-27T03:33:13;99305.59;;;7.00;45.96
16331;BME280;8275;48.206;16.340;2023-01-27T03:35:42;99310.25;;;6.99;45.72
16331;BME280;8275;48.206;16.340;2023-01-27T03:38:15;99299.34;;;6.99;45.58
16331;BME280;8275;48.206;16.340;2023-01-27T03:41:02;99303.56;;;6.95;45.57
16331;BME280;8275;48.206;16.340;2023-01-27T03:43:48;99300.50;;;6.92;45.86
16331;BME280;8275;48.206;16.340;2023-01-27T03:46:34;99305.56;;;6.88;45.62
16331;BME280;8275;48.206;16.340;2023-01-27T03:49:04;99303.06;;;6.87;45.48
16331;BME280;8275;48.206;16.340;2023-01-27T03:51:32;99301.19;;;6.87;45.55
16331;BME280;8275;48.206;16.340;2023-01-27T03:54:01;99295.75;;;6.87;46.13
16331;BME280;8275;48.206;16.340;2023-01-27T03:56:29;99295.38;;;6.84;46.03
16331;BME280;8275;48.206;16.340;2023-01-27T03:58:57;99297.88;;;6.85;46.03
16331;BME280;8275;48.206;16.340;2023-01-27T04:01:26;99296.78;;;6.86;45.59
16331;BME280;8275;48.206;16.340;2023-01-27T04:03:54;99295.50;;;6.89;46.11
16331;BME280;8275;48.206;16.340;2023-01-27T04:06:42;99296.34;;;6.89;46.30
16331;BME280;8275;48.206;16.340;2023-01-27T04:09:23;99303.66;;;6.89;46.48
16331;BME280;8275;48.206;16.340;2023-01-27T04:11:52;99302.38;;;6.91;46.01
16331;BME280;8275;48.206;16.340;2023-01-27T04:14:27;99301.53;;;6.91;45.72
16331;BME280;8275;48.206;16.340;2023-01-27T04:16:59;99300.75;;;6.90;46.11
16331;BME280;8275;48.206;16.340;2023-01-27T04:19:28;99294.22;;;6.91;46.31
16331;BME280;8275;48.206;16.340;2023-01-27T04:21:59;99296.94;;;6.91;45.63
16331;BME280;8275;48.206;16.340;2023-01-27T04:24:28;99300.50;;;6.92;46.00
16331;BME280;8275;48.206;16.340;2023-01-27T04:26:59;99305.09;;;6.91;45.79
16331;BME280;8275;48.206;16.340;2023-01-27T04:29:30;99298.22;;;6.89;46.31
16331;BME280;8275;48.206;16.340;2023-01-27T04:31:59;99298.47;;;6.87;46.25
16331;BME280;8275;48.206;16.340;2023-01-27T04:34:28;99302.84;;;6.88;46.01
16331;BME280;8275;48.206;16.340;2023-01-27T04:36:58;99297.63;;;6.87;46.35
16331;BME280;8275;48.206;16.340;2023-01-27T04:39:27;99294.91;;;6.87;46.10
16331;BME280;8275;48.206;16.340;2023-01-27T04:41:55;99308.97;;;6.84;45.85
16331;BME280;8275;48.206;16.340;2023-01-27T04:44:24;99312.53;;;6.84;45.86
16331;BME280;8275;48.206;16.340;2023-01-27T04:46:53;99303.53;;;6.84;46.42
16331;BME280;8275;48.206;16.340;2023-01-27T04:49:21;99304.00;;;6.81;46.25
16331;BME280;8275;48.206;16.340;2023-01-27T04:51:52;99301.50;;;6.79;45.83
16331;BME280;8275;48.206;16.340;2023-01-27T04:54:22;99307.19;;;6.78;45.89
16331;BME280;8275;48.206;16.340;2023-01-27T04:56:58;99303.88;;;6.76;46.07
16331;BME280;8275;48.206;16.340;2023-01-27T04:59:27;99303.03;;;6.75;46.56
16331;BME280;8275;48.206;16.340;2023-01-27T05:01:55;99305.75;;;6.75;46.30
16331;BME280;8275;48.206;16.340;2023-01-27T05:04:24;99303.03;;;6.75;46.35
16331;BME280;8275;48.206;16.340;2023-01-27T05:06:53;99309.91;;;6.78;46.62
16331;BME280;8275;48.206;16.340;2023-01-27T05:09:23;99307.44;;;6.76;45.88
16331;BME280;8275;48.206;16.340;2023-01-27T05:11:52;99307.19;;;6.78;46.55
16331;BME280;8275;48.206;16.340;2023-01-27T05:14:20;99296.53;;;6.76;46.33
16331;BME280;8275;48.206;16.340;2023-01-27T05:16:49;99298.19;;;6.77;46.42
16331;BME280;8275;48.206;16.340;2023-01-27T05:19:18;99292.53;;;6.79;46.75
16331;BME280;8275;48.206;16.340;2023-01-27T05:21:46;99294.78;;;6.82;46.22
16331;BME280;8275;48.206;16.340;2023-01-27T05:24:15;99297.28;;;6.83;46.45
16331;BME280;8275;48.206;16.340;2023-01-27T05:26:45;99300.00;;;6.83;45.96
16331;BME280;8275;48.206;16.340;2023-01-27T05:29:13;99306.25;;;6.84;46.24
16331;BME280;8275;48.206;16.340;2023-01-27T05:31:41;99305.44;;;6.83;45.90
16331;BME280;8275;48.206;16.340;2023-01-27T05:34:10;99313.63;;;6.83;46.21
16331;BME280;8275;48.206;16.340;2023-01-27T05:36:38;99316.94;;;6.85;46.32
16331;BME280;8275;48.206;16.340;2023-01-27T05:39:09;99317.16;;;6.84;45.99
16331;BME280;8275;48.206;16.340;2023-01-27T05:41:38;99313.63;;;6.83;46.16
16331;BME280;8275;48.206;16.340;2023-01-27T05:44:10;99307.34;;;6.83;46.07
16331;BME280;8275;48.206;16.340;2023-01-27T05:46:40;99310.06;;;6.83;45.96
16331;BME280;8275;48.206;16.340;2023-01-27T05:49:08;99304.84;;;6.81;45.80
16331;BME280;8275;48.206;16.340;2023-01-27T05:51:38;99311.34;;;6.80;46.39
16331;BME280;8275;48.206;16.340;2023-01-27T05:54:07;99305.31;;;6.78;45.48
16331;BME280;8275;48.206;16.340;2023-01-27T05:56:36;99307.66;;;6.75;46.35
16331;BME280;8275;48.206;16.340;2023-01-27T05:59:06;99305.16;;;6.73;45.56
16331;BME280;8275;48.206;16.340;2023-01-27T06:01:36;99312.50;;;6.73;46.33
16331;BME280;8275;48.206;16.340;2023-01-27T06:04:05;99313.56;;;6.72;46.16
16331;BME280;8275;48.206;16.340;2023-01-27T06:06:34;99316.88;;;6.74;46.24
16331;BME280;8275;48.206;16.340;2023-01-27T06:09:02;99311.66;;;6.72;45.87
16331;BME280;8275;48.206;16.340;2023-01-27T06:11:31;99319.63;;;6.74;45.70
16331;BME280;8275;48.206;16.340;2023-01-27T06:13:59;99317.09;;;6.72;46.07
16331;BME280;8275;48.206;16.340;2023-01-27T06:16:28;99324.22;;;6.73;46.26
16331;BME280;8275;48.206;16.340;2023-01-27T06:18:57;99321.50;;;6.73;45.99
16331;BME280;8275;48.206;16.340;2023-01-27T06:21:26;99320.44;;;6.74;46.31
16331;BME280;8275;48.206;16.340;2023-01-27T06:23:55;99321.25;;;6.75;45.65
16331;BME280;8275;48.206;16.340;2023-01-27T06:26:24;99325.41;;;6.77;46.05
16331;BME280;8275;48.206;16.340;2023-01-27T06:28:54;99323.78;;;6.76;46.08
16331;BME280;8275;48.206;16.340;2023-01-27T06:31:23;99323.97;;;6.75;45.83
16331;BME280;8275;48.206;16.340;2023-01-27T06:33:52;99319.00;;;6.72;45.30
16331;BME280;8275;48.206;16.340;2023-01-27T06:36:22;99319.22;;;6.70;45.85
16331;BME280;8275;48.206;16.340;2023-01-27T06:38:51;99310.69;;;6.67;45.13
16331;BME280;8275;48.206;16.340;2023-01-27T06:41:19;99314.47;;;6.66;45.55
16331;BME280;8275;48.206;16.340;2023-01-27T06:43:48;99320.16;;;6.64;45.65
16331;BME280;8275;48.206;16.340;2023-01-27T06:46:16;99323.47;;;6.66;46.14
16331;BME280;8275;48.206;16.340;2023-01-27T06:48:44;99319.72;;;6.67;46.08
16331;BME280;8275;48.206;16.340;2023-01-27T06:51:13;99330.94;;;6.71;46.19
16331;BME280;8275;48.206;16.340;2023-01-27T06:53:43;99329.91;;;6.72;45.93
16331;BME280;8275;48.206;16.340;2023-01-27T06:56:11;99327.97;;;6.72;45.33
16331;BME280;8275;48.206;16.340;2023-01-27T06:58:43;99325.06;;;6.74;45.38
16331;BME280;8275;48.206;16.340;2023-01-27T07:01:11;99333.22;;;6.74;45.79
16331;BME280;8275;48.206;16.340;2023-01-27T07:03:40;99333.81;;;6.76;45.62
16331;BME280;8275;48.206;16.340;2023-01-27T07:06:11;99322.09;;;6.75;45.76
16331;BME280;8275;48.206;16.340;2023-01-27T07:08:42;99328.38;;;6.76;45.58
16331;BME280;8275;48.206;16.340;2023-01-27T07:11:13;99330.06;;;6.77;45.59
16331;BME280;8275;48.206;16.340;2023-01-27T07:13:41;99335.84;;;6.80;45.39
16331;BME280;8275;48.206;16.340;2023-01-27T07:16:10;99337.28;;;6.83;45.54
16331;BME280;8275;48.206;16.340;2023-01-27T07:18:38;99340.59;;;6.85;45.19
16331;BME280;8275;48.206;16.340;2023-01-27T07:21:07;99345.22;;;6.84;45.24
16331;BME280;8275;48.206;16.340;2023-01-27T07:23:35;99355.06;;;6.85;45.67
16331;BME280;8275;48.206;16.340;2023-01-27T07:26:05;99354.22;;;6.85;45.19
16331;BME280;8275;48.206;16.340;2023-01-27T07:28:50;99356.69;;;6.86;45.38
16331;BME280;8275;48.206;16.340;2023-01-27T07:31:19;99353.16;;;6.86;45.06
16331;BME280;8275;48.206;16.340;2023-01-27T07:33:47;99354.56;;;6.88;45.37
16331;BME280;8275;48.206;16.340;2023-01-27T07:36:16;99362.53;;;6.90;44.84
16331;BME280;8275;48.206;16.340;2023-01-27T07:38:48;99356.25;;;6.89;45.48
16331;BME280;8275;48.206;16.340;2023-01-27T07:41:18;99356.50;;;6.88;45.15
16331;BME280;8275;48.206;16.340;2023-01-27T07:43:46;99360.00;;;6.88;45.37
16331;BME280;8275;48.206;16.340;2023-01-27T07:46:18;99359.22;;;6.88;44.67
16331;BME280;8275;48.206;16.340;2023-01-27T07:48:46;99358.38;;;6.87;45.38
16331;BME280;8275;48.206;16.340;2023-01-27T07:51:15;99359.41;;;6.86;44.90
16331;BME280;8275;48.206;16.340;2023-01-27T07:53:43;99363.22;;;6.85;45.43
16331;BME280;8275;48.206;16.340;2023-01-27T07:56:12;99359.66;;;6.85;45.17
16331;BME280;8275;48.206;16.340;2023-01-27T07:58:42;99371.16;;;6.87;45.56
16331;BME280;8275;48.206;16.340;2023-01-27T08:01:12;99364.66;;;6.88;45.40
16331;BME280;8275;48.206;16.340;2023-01-27T08:03:40;99367.97;;;6.90;45.43
16331;BME280;8275;48.206;16.340;2023-01-27T08:06:10;99365.25;;;6.90;45.45
16331;BME280;8275;48.206;16.340;2023-01-27T08:08:39;99366.91;;;6.91;45.13
16331;BME280;8275;48.206;16.340;2023-01-27T08:11:10;99362.28;;;6.91;45.10
16331;BME280;8275;48.206;16.340;2023-01-27T08:13:41;99369.16;;;6.94;45.01
16331;BME280;8275;48.206;16.340;2023-01-27T08:16:13;99363.28;;;6.97;45.16
16331;BME280;8275;48.206;16.340;2023-01-27T08:18:42;99363.03;;;6.98;44.95
16331;BME280;8275;48.206;16.340;2023-01-27T08:21:12;99370.97;;;7.00;45.14
16331;BME280;8275;48.206;16.340;2023-01-27T08:23:40;99375.13;;;7.02;45.11
16331;BME280;8275;48.206;16.340;2023-01-27T08:26:09;99369.22;;;7.05;45.12
16331;BME280;8275;48.206;16.340;2023-01-27T08:28:38;99366.50;;;7.05;44.74
16331;BME280;8275;48.206;16.340;2023-01-27T08:31:11;99363.78;;;7.05;44.22
16331;BME280;8275;48.206;16.340;2023-01-27T08:33:41;99379.06;;;7.06;44.95
16331;BME280;8275;48.206;16.340;2023-01-27T08:36:12;99378.22;;;7.06;45.04
16331;BME280;8275;48.206;16.340;2023-01-27T08:38:42;99377.97;;;7.07;45.22
16331;BME280;8275;48.206;16.340;2023-01-27T08:41:14;99385.72;;;7.11;45.12
16331;BME280;8275;48.206;16.340;2023-01-27T08:43:43;99384.41;;;7.13;45.08
16331;BME280;8275;48.206;16.340;2023-01-27T08:46:14;99387.97;;;7.14;44.93
16331;BME280;8275;48.206;16.340;2023-01-27T08:48:43;99389.38;;;7.16;44.73
16331;BME280;8275;48.206;16.340;2023-01-27T08:51:13;99392.25;;;7.21;45.15
16331;BME280;8275;48.206;16.340;2023-01-27T08:53:41;99390.13;;;7.23;44.89
16331;BME280;8275;48.206;16.340;2023-01-27T08:56:12;99391.53;;;7.26;44.45
16331;BME280;8275;48.206;16.340;2023-01-27T08:58:41;99395.94;;;7.27;44.59
16331;BME280;8275;48.206;16.340;2023-01-27T09:01:14;99400.31;;;7.28;44.49
16331;BME280;8275;48.206;16.340;2023-01-27T09:03:43;99399.50;;;7.27;44.17
16331;BME280;8275;48.206;16.340;2023-01-27T09:06:12;99392.38;;;7.26;44.23
16331;BME280;8275;48.206;16.340;2023-01-27T09:08:42;99392.03;;;7.23;44.07
16331;BME280;8275;48.206;16.340;2023-01-27T09:11:14;99392.03;;;7.23;44.64
16331;BME280;8275;48.206;16.340;2023-01-27T09:13:43;99396.66;;;7.22;44.91
16331;BME280;8275;48.206;16.340;2023-01-27T09:16:13;99396.66;;;7.22;44.63
16331;BME280;8275;48.206;16.340;2023-01-27T09:18:41;99396.66;;;7.22;44.38
16331;BME280;8275;48.206;16.340;2023-01-27T09:21:10;99394.28;;;7.26;44.63
16331;BME280;8275;48.206;16.340;2023-01-27T09:23:38;99390.50;;;7.27;44.60
16331;BME280;8275;48.206;16.340;2023-01-27T09:26:07;99390.25;;;7.28;44.38
16331;BME280;8275;48.206;16.340;2023-01-27T09:28:35;99403.03;;;7.28;44.43
16331;BME280;8275;48.206;16.340;2023-01-27T09:31:04;99398.69;;;7.27;44.72
16331;BME280;8275;48.206;16.340;2023-01-27T09:33:37;99402.00;;;7.29;45.01
16331;BME280;8275;48.206;16.340;2023-01-27T09:36:09;99399.28;;;7.29;45.00
16331;BME280;8275;48.206;16.340;2023-01-27T09:38:45;99409.94;;;7.30;45.26
16331;BME280;8275;48.206;16.340;2023-01-27T09:41:37;99405.75;;;7.28;45.00
16331;BME280;8275;48.206;16.340;2023-01-27T09:44:41;99400.56;;;7.26;45.70
16331;BME280;8275;48.206;16.340;2023-01-27T09:47:40;99401.00;;;7.23;46.15
16331;BME280;8275;48.206;16.340;2023-01-27T09:50:38;99398.28;;;7.23;46.25
16331;BME280;8275;48.206;16.340;2023-01-27T09:54:00;99392.38;;;7.26;46.43
16331;BME280;8275;48.206;16.340;2023-01-27T09:56:51;99388.38;;;7.29;46.35
16331;BME280;8275;48.206;16.340;2023-01-27T09:59:34;99399.16;;;7.35;46.29
16331;BME280;8275;48.206;16.340;2023-01-27T10:02:20;99411.25;;;7.39;45.78
16331;BME280;8275;48.206;16.340;2023-01-27T10:05:06;99396.81;;;7.39;46.23
16331;BME280;8275;48.206;16.340;2023-01-27T10:07:54;99384.84;;;7.40;46.25
16331;BME280;8275;48.206;16.340;2023-01-27T10:10:40;99390.28;;;7.40;46.33
16331;BME280;8275;48.206;16.340;2023-01-27T10:13:27;99385.09;;;7.38;46.32
16331;BME280;8275;48.206;16.340;2023-01-27T10:16:23;99374.19;;;7.38;46.09
16331;BME280;8275;48.206;16.340;2023-01-27T10:19:19;99378.78;;;7.38;45.75
16331;BME280;8275;48.206;16.340;2023-01-27T10:21:58;99375.47;;;7.36;46.09
16331;BME280;8275;48.206;16.340;2023-01-27T10:24:44;99380.09;;;7.35;46.39
16331;BME280;8275;48.206;16.340;2023-01-27T10:27:25;99385.31;;;7.37;46.23
16331;BME280;8275;48.206;16.340;2023-01-27T10:29:57;99379.03;;;7.36;46.37
16331;BME280;8275;48.206;16.340;2023-01-27T10:32:41;99383.19;;;7.39;46.00
16331;BME280;8275;48.206;16.340;2023-01-27T10:35:17;99378.34;;;7.41;46.03
16331;BME280;8275;48.206;16.340;2023-01-27T10:37:59;99374.78;;;7.40;45.98
16331;BME280;8275;48.206;16.340;2023-01-27T10:40:39;99379.84;;;7.37;45.94
16331;BME280;8275;48.206;16.340;2023-01-27T10:43:16;99379.84;;;7.37;46.34
16331;BME280;8275;48.206;16.340;2023-01-27T10:45:51;99382.81;;;7.35;45.81
16331;BME280;8275;48.206;16.340;2023-01-27T10:48:34;99377.38;;;7.35;46.07
16331;BME280;8275;48.206;16.340;2023-01-27T10:51:09;99372.28;;;7.39;45.56
16331;BME280;8275;48.206;16.340;2023-01-27T10:53:49;99372.66;;;7.42;45.97
16331;BME280;8275;48.206;16.340;2023-01-27T10:56:29;99367.78;;;7.44;45.38
16331;BME280;8275;48.206;16.340;2023-01-27T10:59:05;99368.63;;;7.45;45.15
16331;BME280;8275;48.206;16.340;2023-01-27T11:01:41;99368.38;;;7.46;45.52
16331;BME280;8275;48.206;16.340;2023-01-27T11:04:14;99366.50;;;7.47;45.30
16331;BME280;8275;48.206;16.340;2023-01-27T11:06:46;99366.03;;;7.50;45.27
16331;BME280;8275;48.206;16.340;2023-01-27T11:09:24;99366.63;;;7.52;45.49
16331;BME280;8275;48.206;16.340;2023-01-27T11:12:01;99355.47;;;7.53;45.20
16331;BME280;8275;48.206;16.340;2023-01-27T11:14:39;99353.34;;;7.55;45.52
16331;BME280;8275;48.206;16.340;2023-01-27T11:17:15;99357.50;;;7.58;45.39
16331;BME280;8275;48.206;16.340;2023-01-27T11:19:53;99354.31;;;7.61;45.57
16331;BME280;8275;48.206;16.340;2023-01-27T11:22:29;99352.78;;;7.65;45.22
16331;BME280;8275;48.206;16.340;2023-01-27T11:25:06;99369.38;;;7.63;45.33
16331;BME280;8275;48.206;16.340;2023-01-27T11:28:16;99362.50;;;7.61;45.01
16331;BME280;8275;48.206;16.340;2023-01-27T11:30:53;99359.19;;;7.59;45.06
16331;BME280;8275;48.206;16.340;2023-01-27T11:33:29;99352.28;;;7.56;45.09
16331;BME280;8275;48.206;16.340;2023-01-27T11:35:58;99361.78;;;7.54;45.55
16331;BME280;8275;48.206;16.340;2023-01-27T11:38:27;99357.25;;;7.48;45.36
16331;BME280;8275;48.206;16.340;2023-01-27T11:40:55;99362.13;;;7.46;46.05
16331;BME280;8275;48.206;16.340;2023-01-27T11:43:26;99362.13;;;7.46;45.90
16331;BME280;8275;48.206;16.340;2023-01-27T11:46:01;99357.84;;;7.50;46.38
16331;BME280;8275;48.206;16.340;2023-01-27T11:48:37;99361.41;;;7.50;46.23
16331;BME280;8275;48.206;16.340;2023-01-27T11:51:18;99353.25;;;7.50;46.56
16331;BME280;8275;48.206;16.340;2023-01-27T11:53:52;99358.06;;;7.48;46.24
16331;BME280;8275;48.206;16.340;2023-01-27T11:56:24;99358.19;;;7.42;46.00
16331;BME280;8275;48.206;16.340;2023-01-27T11:59:00;99360.19;;;7.35;46.63
16331;BME280;8275;48.206;16.340;2023-01-27T12:01:41;99355.06;;;7.27;46.82
16331;BME280;8275;48.206;16.340;2023-01-27T12:04:21;99357.66;;;7.22;47.25
16331;BME280;8275;48.206;16.340;2023-01-27T12:06:54;99351.63;;;7.20;47.02
16331;BME280;8275;48.206;16.340;2023-01-27T12:09:33;99345.19;;;7.14;47.40
16331;BME280;8275;48.206;16.340;2023-01-27T12:12:21;99345.31;;;7.07;47.11
16331;BME280;8275;48.206;16.340;2023-01-27T12:14:53;99346.13;;;7.08;47.42
16331;BME280;8275;48.206;16.340;2023-01-27T12:17:29;99345.69;;;7.11;47.52
16331;BME280;8275;48.206;16.340;2023-01-27T12:20:02;99347.31;;;7.12;47.41
16331;BME280;8275;48.206;16.340;2023-01-27T12:22:36;99343.56;;;7.13;47.26
16331;BME280;8275;48.206;16.340;2023-01-27T12:25:14;99341.56;;;7.20;46.91
16331;BME280;8275;48.206;16.340;2023-01-27T12:27:50;99329.72;;;7.26;46.92
16331;BME280;8275;48.206;16.340;2023-01-27T12:30:23;99335.66;;;7.35;47.22
16331;BME280;8275;48.206;16.340;2023-01-27T12:32:53;99326.56;;;7.41;46.93
16331;BME280;8275;48.206;16.340;2023-01-27T12:35:26;99329.16;;;7.47;46.70
16331;BME280;8275;48.206;16.340;2023-01-27T12:38:00;99331.53;;;7.55;46.85
16331;BME280;8275;48.206;16.340;2023-01-27T12:40:29;99320.31;;;7.63;46.10
16331;BME280;8275;48.206;16.340;2023-01-27T12:43:11;99321.47;;;7.67;45.92
16331;BME280;8275;48.206;16.340;2023-01-27T12:45:42;99327.53;;;7.69;45.73
16331;BME280;8275;48.206;16.340;2023-01-27T12:48:18;99319.72;;;7.73;45.59
16331;BME280;8275;48.206;16.340;2023-01-27T12:50:57;99319.47;;;7.74;45.04
16331;BME280;8275;48.206;16.340;2023-01-27T12:53:32;99324.34;;;7.72;44.67
16331;BME280;8275;48.206;16.340;2023-01-27T12:56:08;99323.97;;;7.69;44.40
16331;BME280;8275;48.206;16.340;2023-01-27T12:58:39;99314.59;;;7.65;44.32
16331;BME280;8275;48.206;16.340;2023-01-27T13:01:24;99327.41;;;7.64;44.45
16331;BME280;8275;48.206;16.340;2023-01-27T13:03:57;99317.81;;;7.62;43.83
16331;BME280;8275;48.206;16.340;2023-01-27T13:06:38;99320.41;;;7.57;44.01
16331;BME280;8275;48.206;16.340;2023-01-27T13:09:24;99318.41;;;7.52;44.14
16331;BME280;8275;48.206;16.340;2023-01-27T13:11:56;99309.97;;;7.54;43.78
16331;BME280;8275;48.206;16.340;2023-01-27T13:14:28;99317.31;;;7.53;43.54
16331;BME280;8275;48.206;16.340;2023-01-27T13:16:59;99318.41;;;7.52;43.73
16331;BME280;8275;48.206;16.340;2023-01-27T13:19:36;99321.34;;;7.51;43.64
16331;BME280;8275;48.206;16.340;2023-01-27T13:22:17;99317.19;;;7.48;43.43
16331;BME280;8275;48.206;16.340;2023-01-27T13:24:51;99322.19;;;7.51;43.79
16331;BME280;8275;48.206;16.340;2023-01-27T13:27:23;99325.75;;;7.52;43.82
16331;BME280;8275;48.206;16.340;2023-01-27T13:29:58;99320.53;;;7.50;43.98
16331;BME280;8275;48.206;16.340;2023-01-27T13:32:32;99321.47;;;7.56;43.61
16331;BME280;8275;48.206;16.340;2023-01-27T13:35:16;99309.50;;;7.57;43.65
16331;BME280;8275;48.206;16.340;2023-01-27T13:37:52;99315.19;;;7.55;43.50
16331;BME280;8275;48.206;16.340;2023-01-27T13:40:29;99316.47;;;7.53;43.09